createdAt,value
2019-04-25T00:00:38.036Z,12.75
2019-04-25T00:03:07.686Z,12.75
2019-04-25T00:05:37.220Z,12.65
2019-04-25T00:08:07.255Z,12.62
2019-04-25T00:10:37.782Z,12.60
2019-04-25T00:13:07.622Z,12.59
2019-04-25T00:15:38.224Z,12.59
2019-04-25T00:18:07.735Z,12.58
2019-04-25T00:20:39.066Z,12.57
2019-04-25T00:23:22.279Z,12.56
2019-04-25T00:26:02.017Z,12.57
2019-04-25T00:28:31.691Z,12.54
2019-04-25T00:31:02.127Z,12.49
2019-04-25T00:33:31.754Z,12.46
2019-04-25T00:36:02.034Z,12.46
2019-04-25T00:38:32.569Z,12.47
2019-04-25T00:41:02.129Z,12.44
2019-04-25T00:43:32.430Z,12.41
2019-04-25T00:46:02.691Z,12.29
2019-04-25T00:48:32.454Z,12.20
2019-04-25T00:51:02.010Z,11.99
2019-04-25T00:53:32.352Z,11.85
2019-04-25T00:56:02.357Z,11.75
2019-04-25T00:58:43.978Z,11.63
2019-04-25T01:01:31.854Z,11.63
2019-04-25T01:04:02.297Z,11.59
2019-04-25T01:06:32.004Z,11.63
2019-04-25T01:09:02.341Z,11.71
2019-04-25T01:11:32.081Z,11.80
2019-04-25T01:14:02.159Z,11.83
2019-04-25T01:16:31.904Z,11.88
2019-04-25T01:19:01.467Z,11.92
2019-04-25T01:21:31.310Z,11.94
2019-04-25T01:24:01.018Z,11.93
2019-04-25T01:26:30.570Z,11.92
2019-04-25T01:29:00.449Z,11.88
2019-04-25T01:31:29.985Z,11.84
2019-04-25T01:33:59.576Z,11.76
2019-04-25T01:36:47.097Z,11.75
2019-04-25T01:39:25.292Z,11.77
2019-04-25T01:42:05.498Z,11.79
2019-04-25T01:44:43.999Z,11.77
2019-04-25T01:47:14.553Z,11.81
2019-04-25T01:49:44.066Z,11.79
2019-04-25T01:52:13.776Z,11.73
2019-04-25T01:54:43.793Z,11.72
2019-04-25T01:57:14.320Z,11.76
2019-04-25T01:59:44.017Z,11.79
2019-04-25T02:02:15.139Z,11.80
2019-04-25T02:04:45.601Z,11.77
2019-04-25T02:07:15.206Z,11.75
2019-04-25T02:09:44.741Z,11.72
2019-04-25T02:12:25.180Z,11.72
2019-04-25T02:14:56.020Z,11.73
2019-04-25T02:17:26.286Z,11.72
2019-04-25T02:19:56.736Z,11.74
2019-04-25T02:22:27.414Z,11.74
2019-04-25T02:24:57.145Z,11.74
2019-04-25T02:27:26.762Z,11.75
2019-04-25T02:29:57.216Z,11.73
2019-04-25T02:32:27.010Z,11.64
2019-04-25T02:35:00.536Z,11.59
2019-04-25T02:37:28.061Z,11.56
2019-04-25T02:39:59.796Z,11.56
2019-04-25T02:42:28.956Z,11.49
2019-04-25T02:45:06.724Z,11.44
2019-04-25T02:47:46.342Z,11.38
2019-04-25T02:50:24.634Z,11.40
2019-04-25T02:52:57.434Z,11.42
2019-04-25T02:55:33.531Z,11.49
2019-04-25T02:57:58.443Z,11.49
2019-04-25T03:00:46.057Z,11.48
2019-04-25T03:03:01.213Z,11.49
2019-04-25T03:05:30.785Z,11.44
2019-04-25T03:08:01.457Z,11.42
2019-04-25T03:10:31.441Z,11.37
2019-04-25T03:13:02.058Z,11.39
2019-04-25T03:15:34.192Z,11.36
2019-04-25T03:18:05.736Z,11.37
2019-04-25T03:20:37.450Z,11.34
2019-04-25T03:23:14.699Z,11.36
2019-04-25T03:25:44.270Z,11.40
2019-04-25T03:28:15.524Z,11.46
2019-04-25T03:30:45.573Z,11.51
2019-04-25T03:33:19.724Z,11.55
2019-04-25T03:35:46.385Z,11.58
2019-04-25T03:38:15.919Z,11.57
2019-04-25T03:40:45.453Z,11.62
2019-04-25T03:43:15.087Z,11.63
2019-04-25T03:45:45.319Z,11.67
2019-04-25T03:48:15.147Z,11.70
2019-04-25T03:50:44.692Z,11.73
2019-04-25T03:53:14.373Z,11.78
2019-04-25T03:55:44.384Z,11.80
2019-04-25T03:58:14.644Z,11.80
2019-04-25T04:00:44.972Z,11.79
2019-04-25T04:03:15.244Z,11.81
2019-04-25T04:05:44.829Z,11.85
2019-04-25T04:08:15.757Z,11.86
2019-04-25T04:10:45.536Z,11.87
2019-04-25T04:13:15.859Z,11.85
2019-04-25T04:15:45.508Z,11.87
2019-04-25T04:18:17.403Z,11.88
2019-04-25T04:20:48.859Z,11.88
2019-04-25T04:23:23.256Z,11.89
2019-04-25T04:25:54.624Z,11.89
2019-04-25T04:28:24.333Z,11.86
2019-04-25T04:30:54.149Z,11.84
2019-04-25T04:33:31.879Z,11.88
2019-04-25T04:35:55.069Z,11.91
2019-04-25T04:38:24.594Z,11.90
2019-04-25T04:40:55.148Z,11.94
2019-04-25T04:43:25.644Z,11.94
2019-04-25T04:45:55.274Z,11.96
2019-04-25T04:48:24.872Z,11.97
2019-04-25T04:50:54.417Z,12.01
2019-04-25T04:53:24.072Z,12.04
2019-04-25T04:55:54.374Z,12.08
2019-04-25T04:58:25.124Z,12.09
2019-04-25T05:00:54.696Z,12.10
2019-04-25T05:03:26.717Z,12.10
2019-04-25T05:06:15.329Z,12.12
2019-04-25T05:08:49.623Z,12.13
2019-04-25T05:11:19.907Z,12.17
2019-04-25T05:13:49.471Z,12.19
2019-04-25T05:16:19.848Z,12.22
2019-04-25T05:18:49.365Z,12.27
2019-04-25T05:21:19.008Z,12.30
2019-04-25T05:23:48.886Z,12.35
2019-04-25T05:26:18.967Z,12.36
2019-04-25T05:28:48.500Z,12.42
2019-04-25T05:31:22.460Z,12.47
2019-04-25T05:33:53.558Z,12.51
2019-04-25T05:36:25.099Z,12.61
2019-04-25T05:38:54.612Z,12.62
2019-04-25T05:41:28.627Z,12.76
2019-04-25T05:43:58.167Z,12.81
2019-04-25T05:46:27.681Z,12.86
2019-04-25T05:48:57.240Z,12.93
2019-04-25T05:51:26.764Z,13.01
2019-04-25T05:53:56.315Z,13.10
2019-04-25T05:56:26.934Z,13.18
2019-04-25T05:58:57.079Z,13.28
2019-04-25T06:01:29.137Z,13.41
2019-04-25T06:03:57.996Z,13.56
2019-04-25T06:06:28.251Z,13.69
2019-04-25T06:09:01.812Z,13.93
2019-04-25T06:11:37.951Z,14.15
2019-04-25T06:14:08.683Z,14.39
2019-04-25T06:16:39.575Z,14.55
2019-04-25T06:19:14.289Z,14.65
2019-04-25T06:21:43.536Z,14.62
2019-04-25T06:24:15.443Z,14.54
2019-04-25T06:26:50.356Z,14.61
2019-04-25T06:29:20.504Z,14.83
2019-04-25T06:31:50.072Z,15.12
2019-04-25T06:34:19.971Z,15.31
2019-04-25T06:36:49.714Z,15.49
2019-04-25T06:39:20.313Z,15.68
2019-04-25T06:41:49.915Z,15.81
2019-04-25T06:44:39.309Z,15.87
2019-04-25T06:47:08.938Z,15.90
2019-04-25T06:49:40.203Z,15.98
2019-04-25T06:52:09.801Z,15.96
2019-04-25T06:54:39.466Z,15.96
2019-04-25T06:57:09.458Z,16.11
2019-04-25T06:59:41.401Z,16.21
2019-04-25T07:02:10.402Z,16.09
2019-04-25T07:04:40.256Z,16.01
2019-04-25T07:07:12.651Z,16.03
2019-04-25T07:09:41.238Z,15.97
2019-04-25T07:12:10.884Z,15.97
2019-04-25T07:14:40.433Z,16.01
2019-04-25T07:17:10.067Z,16.02
2019-04-25T07:19:39.693Z,16.10
2019-04-25T07:22:09.191Z,16.24
2019-04-25T07:24:38.733Z,16.36
2019-04-25T07:27:21.763Z,16.50
2019-04-25T07:29:55.801Z,16.70
2019-04-25T07:32:31.095Z,16.77
2019-04-25T07:35:00.707Z,16.87
2019-04-25T07:37:30.251Z,16.85
2019-04-25T07:39:59.792Z,16.85
2019-04-25T07:42:29.832Z,16.78
2019-04-25T07:44:59.444Z,16.72
2019-04-25T07:47:29.347Z,16.84
2019-04-25T07:49:58.996Z,17.02
2019-04-25T07:52:28.862Z,17.28
2019-04-25T07:54:58.383Z,17.45
2019-04-25T07:57:28.008Z,17.51
2019-04-25T07:59:57.525Z,17.51
2019-04-25T08:02:27.956Z,17.25
2019-04-25T08:04:57.590Z,17.19
2019-04-25T08:07:28.036Z,17.15
2019-04-25T08:09:57.613Z,17.15
2019-04-25T08:12:28.263Z,17.21
2019-04-25T08:14:59.493Z,17.57
2019-04-25T08:17:46.765Z,17.93
2019-04-25T08:20:17.132Z,18.26
2019-04-25T08:22:55.459Z,18.56
2019-04-25T08:25:18.728Z,18.51
2019-04-25T08:27:48.209Z,18.55
2019-04-25T08:30:17.812Z,18.56
2019-04-25T08:32:47.593Z,18.46
2019-04-25T08:35:17.144Z,18.17
2019-04-25T08:37:46.666Z,17.97
2019-04-25T08:40:16.843Z,17.86
2019-04-25T08:42:47.495Z,17.66
2019-04-25T08:45:17.850Z,17.58
2019-04-25T08:47:47.632Z,17.57
2019-04-25T08:50:37.520Z,17.53
2019-04-25T08:53:06.113Z,17.50
2019-04-25T08:55:38.443Z,17.38
2019-04-25T08:58:18.615Z,17.37
2019-04-25T09:01:01.385Z,17.43
2019-04-25T09:03:38.964Z,17.33
2019-04-25T09:06:09.426Z,17.31
2019-04-25T09:08:39.454Z,17.26
2019-04-25T09:11:09.159Z,17.26
2019-04-25T09:13:39.553Z,17.15
2019-04-25T09:16:09.167Z,17.11
2019-04-25T09:18:38.821Z,17.08
2019-04-25T09:21:08.414Z,17.09
2019-04-25T09:23:39.646Z,17.12
2019-04-25T09:26:09.202Z,17.19
2019-04-25T09:28:40.587Z,17.17
2019-04-25T09:31:10.110Z,17.27
2019-04-25T09:33:39.652Z,17.40
2019-04-25T09:36:09.241Z,17.54
2019-04-25T09:38:39.473Z,17.75
2019-04-25T09:41:08.926Z,17.91
2019-04-25T09:43:38.468Z,17.96
2019-04-25T09:46:09.729Z,18.03
2019-04-25T09:48:46.855Z,18.06
2019-04-25T09:51:36.256Z,18.13
2019-04-25T09:54:07.861Z,18.27
2019-04-25T09:56:39.040Z,18.30
2019-04-25T09:59:27.394Z,18.32
2019-04-25T10:01:51.197Z,18.35
2019-04-25T10:04:22.947Z,18.34
2019-04-25T10:06:53.451Z,18.36
2019-04-25T10:09:23.806Z,18.36
2019-04-25T10:11:54.637Z,18.34
2019-04-25T10:14:34.464Z,18.31
2019-04-25T10:17:04.155Z,18.29
2019-04-25T10:19:34.493Z,18.20
2019-04-25T10:22:04.214Z,18.23
2019-04-25T10:24:33.749Z,18.21
2019-04-25T10:27:03.752Z,18.27
2019-04-25T10:29:41.197Z,18.34
2019-04-25T10:32:04.770Z,18.50
2019-04-25T10:34:34.374Z,18.77
2019-04-25T10:37:03.909Z,19.14
2019-04-25T10:39:34.138Z,19.44
2019-04-25T10:42:03.745Z,19.74
2019-04-25T10:44:33.829Z,19.88
2019-04-25T10:47:03.472Z,20.07
2019-04-25T10:49:34.458Z,20.34
2019-04-25T10:52:04.996Z,20.47
2019-04-25T10:54:35.163Z,20.86
2019-04-25T10:57:06.467Z,20.96
2019-04-25T10:59:36.264Z,21.10
2019-04-25T11:02:05.772Z,21.14
2019-04-25T11:04:36.987Z,21.23
2019-04-25T11:07:06.498Z,21.37
2019-04-25T11:09:36.051Z,21.57
2019-04-25T11:12:09.479Z,21.64
2019-04-25T11:14:39.976Z,21.56
2019-04-25T11:17:10.400Z,21.58
2019-04-25T11:19:40.105Z,21.73
2019-04-25T11:22:10.609Z,21.77
2019-04-25T11:24:40.153Z,21.84
2019-04-25T11:27:09.678Z,21.77
2019-04-25T11:29:39.199Z,21.86
2019-04-25T11:32:08.960Z,21.98
2019-04-25T11:34:38.952Z,21.92
2019-04-25T11:37:08.515Z,21.84
2019-04-25T11:39:39.859Z,21.68
2019-04-25T11:42:10.179Z,21.54
2019-04-25T11:44:39.718Z,21.49
2019-04-25T11:47:09.507Z,21.53
2019-04-25T11:49:39.137Z,21.43
2019-04-25T11:52:08.994Z,21.42
2019-04-25T11:54:38.614Z,21.28
2019-04-25T11:57:08.223Z,21.14
2019-04-25T11:59:37.898Z,21.09
2019-04-25T12:02:09.162Z,21.10
2019-04-25T12:04:38.697Z,21.16
2019-04-25T12:07:09.275Z,21.15
2019-04-25T12:09:39.031Z,21.16
2019-04-25T12:12:08.727Z,21.13
2019-04-25T12:14:38.326Z,21.13
2019-04-25T12:17:07.847Z,21.11
2019-04-25T12:19:38.168Z,21.14
2019-04-25T12:22:07.996Z,21.16
2019-04-25T12:24:37.848Z,21.22
2019-04-25T12:27:07.343Z,21.31
2019-04-25T12:29:38.816Z,21.39
2019-04-25T12:32:08.265Z,21.40
2019-04-25T12:34:37.854Z,21.36
2019-04-25T12:37:07.503Z,21.49
2019-04-25T12:39:37.113Z,21.66
2019-04-25T12:42:06.803Z,21.82
2019-04-25T12:44:37.974Z,21.96
2019-04-25T12:47:09.218Z,22.07
2019-04-25T12:49:38.749Z,22.12
2019-04-25T12:52:08.407Z,22.20
2019-04-25T12:54:38.053Z,22.25
2019-04-25T12:57:07.760Z,22.31
2019-04-25T12:59:37.286Z,22.38
2019-04-25T13:02:06.900Z,22.31
2019-04-25T13:04:36.600Z,22.30
2019-04-25T13:07:06.304Z,22.28
2019-04-25T13:09:35.822Z,22.37
2019-04-25T13:12:06.020Z,22.46
2019-04-25T13:14:35.566Z,22.48
2019-04-25T13:17:08.070Z,22.44
2019-04-25T13:19:36.454Z,22.44
2019-04-25T13:22:06.730Z,22.35
2019-04-25T13:24:36.552Z,22.37
2019-04-25T13:27:07.896Z,22.37
2019-04-25T13:29:51.238Z,22.33
2019-04-25T13:32:38.285Z,22.29
2019-04-25T13:35:13.589Z,22.29
2019-04-25T13:37:44.004Z,22.23
2019-04-25T13:40:16.240Z,22.33
2019-04-25T13:42:45.176Z,22.43
2019-04-25T13:45:15.782Z,22.47
2019-04-25T13:47:45.353Z,22.57
2019-04-25T13:50:15.529Z,22.63
2019-04-25T13:52:45.077Z,22.73
2019-04-25T13:55:14.805Z,22.78
2019-04-25T13:57:44.330Z,22.99
2019-04-25T14:00:14.488Z,23.13
2019-04-25T14:02:44.017Z,23.12
2019-04-25T14:05:14.698Z,23.11
2019-04-25T14:07:44.346Z,23.06
2019-04-25T14:10:14.345Z,23.03
2019-04-25T14:12:44.257Z,22.97
2019-04-25T14:15:16.071Z,22.93
2019-04-25T14:17:50.092Z,22.88
2019-04-25T14:20:21.901Z,22.93
2019-04-25T14:22:53.661Z,22.97
2019-04-25T14:25:26.218Z,23.05
2019-04-25T14:27:55.053Z,23.13
2019-04-25T14:30:26.276Z,23.16
2019-04-25T14:32:55.831Z,23.18
2019-04-25T14:35:25.500Z,23.26
2019-04-25T14:37:55.305Z,23.30
2019-04-25T14:40:26.074Z,23.31
2019-04-25T14:42:57.094Z,23.28
2019-04-25T14:45:26.812Z,23.22
2019-04-25T14:47:56.340Z,23.20
2019-04-25T14:50:27.154Z,23.16
2019-04-25T14:52:56.719Z,23.14
2019-04-25T14:55:43.037Z,23.15
2019-04-25T14:58:14.433Z,23.21
2019-04-25T15:00:46.615Z,23.22
2019-04-25T15:03:16.295Z,23.21
2019-04-25T15:05:45.900Z,23.28
2019-04-25T15:08:15.580Z,23.25
2019-04-25T15:10:45.179Z,23.21
2019-04-25T15:13:14.776Z,23.17
2019-04-25T15:15:44.330Z,23.13
2019-04-25T15:18:14.534Z,23.12
2019-04-25T15:20:44.336Z,23.09
2019-04-25T15:23:14.521Z,23.05
2019-04-25T15:25:44.646Z,23.03
2019-04-25T15:28:14.257Z,23.05
2019-04-25T15:30:44.165Z,22.99
2019-04-25T15:33:14.250Z,22.97
2019-04-25T15:35:44.988Z,22.99
2019-04-25T15:38:19.416Z,23.01
2019-04-25T15:40:53.052Z,22.97
2019-04-25T15:43:27.654Z,22.96
2019-04-25T15:46:03.915Z,23.00
2019-04-25T15:48:33.298Z,23.00
2019-04-25T15:51:02.882Z,22.99
2019-04-25T15:53:33.044Z,22.97
2019-04-25T15:56:02.592Z,22.99
2019-04-25T15:58:32.692Z,22.98
2019-04-25T16:01:02.223Z,22.98
2019-04-25T16:03:32.003Z,22.97
2019-04-25T16:06:01.511Z,22.95
2019-04-25T16:08:31.172Z,22.93
2019-04-25T16:11:01.104Z,22.91
2019-04-25T16:13:32.210Z,22.91
2019-04-25T16:16:02.553Z,22.88
2019-04-25T16:18:32.034Z,22.86
2019-04-25T16:21:02.388Z,22.88
2019-04-25T16:23:32.252Z,22.91
2019-04-25T16:26:01.765Z,22.91
2019-04-25T16:28:31.744Z,22.93
2019-04-25T16:31:04.206Z,22.90
2019-04-25T16:33:33.202Z,22.97
2019-04-25T16:36:03.021Z,22.96
2019-04-25T16:38:33.358Z,22.95
2019-04-25T16:41:02.993Z,22.93
2019-04-25T16:43:35.196Z,22.94
2019-04-25T16:46:04.851Z,22.91
2019-04-25T16:48:34.384Z,22.89
2019-04-25T16:51:04.132Z,22.88
2019-04-25T16:53:34.240Z,22.81
2019-04-25T16:56:04.040Z,22.82
2019-04-25T16:58:33.614Z,22.83
2019-04-25T17:01:11.004Z,22.74
2019-04-25T17:03:41.379Z,22.70
2019-04-25T17:06:12.323Z,22.68
2019-04-25T17:08:42.595Z,22.65
2019-04-25T17:11:12.215Z,22.56
2019-04-25T17:13:44.013Z,22.51
2019-04-25T17:16:15.249Z,22.49
2019-04-25T17:18:49.108Z,22.46
2019-04-25T17:21:19.637Z,22.42
2019-04-25T17:23:49.174Z,22.41
2019-04-25T17:26:18.847Z,22.39
2019-04-25T17:28:50.028Z,22.28
2019-04-25T17:31:23.743Z,22.29
2019-04-25T17:33:54.937Z,22.23
2019-04-25T17:36:33.755Z,22.22
2019-04-25T17:39:05.425Z,22.08
2019-04-25T17:41:34.969Z,22.01
2019-04-25T17:44:04.646Z,21.80
2019-04-25T17:46:34.179Z,21.67
2019-04-25T17:49:03.708Z,21.55
2019-04-25T17:51:33.404Z,21.46
2019-04-25T17:54:03.006Z,21.32
2019-04-25T17:56:33.247Z,21.21
2019-04-25T17:59:03.288Z,21.16
2019-04-25T18:01:32.912Z,21.10
2019-04-25T18:04:04.475Z,21.09
2019-04-25T18:06:34.387Z,21.05
2019-04-25T18:09:09.498Z,20.87
2019-04-25T18:11:40.118Z,20.66
2019-04-25T18:14:09.843Z,20.33
2019-04-25T18:16:44.811Z,20.05
2019-04-25T18:19:14.471Z,19.97
2019-04-25T18:21:44.985Z,19.93
2019-04-25T18:24:28.337Z,19.82
2019-04-25T18:26:59.528Z,19.75
2019-04-25T18:29:29.410Z,19.52
2019-04-25T18:31:59.187Z,19.43
2019-04-25T18:34:33.167Z,19.37
2019-04-25T18:37:19.442Z,19.35
2019-04-25T18:39:53.546Z,19.26
2019-04-25T18:42:25.417Z,19.11
2019-04-25T18:44:54.975Z,19.01
2019-04-25T18:47:24.533Z,18.90
2019-04-25T18:49:54.057Z,18.82
2019-04-25T18:52:41.558Z,18.83
2019-04-25T18:55:18.617Z,18.82
2019-04-25T18:57:55.278Z,18.84
2019-04-25T19:00:39.179Z,18.85
2019-04-25T19:03:22.034Z,18.68
2019-04-25T19:05:53.059Z,18.67
2019-04-25T19:08:22.616Z,18.55
2019-04-25T19:10:52.178Z,18.63
2019-04-25T19:13:22.463Z,18.53
2019-04-25T19:15:52.266Z,18.52
2019-04-25T19:18:25.751Z,18.46
2019-04-25T19:20:55.274Z,18.32
2019-04-25T19:23:24.903Z,18.23
2019-04-25T19:25:54.764Z,18.13
2019-04-25T19:28:24.351Z,18.10
2019-04-25T19:30:54.248Z,18.03
2019-04-25T19:33:35.000Z,17.98
2019-04-25T19:35:55.255Z,17.93
2019-04-25T19:38:24.872Z,17.76
2019-04-25T19:41:04.888Z,17.80
2019-04-25T19:43:48.629Z,17.84
2019-04-25T19:46:18.152Z,17.89
2019-04-25T19:48:47.800Z,17.84
2019-04-25T19:51:17.367Z,17.66
2019-04-25T19:53:47.113Z,17.65
2019-04-25T19:56:16.703Z,17.64
2019-04-25T19:58:46.522Z,17.56
2019-04-25T20:01:16.275Z,17.50
2019-04-25T20:04:03.337Z,17.41
2019-04-25T20:06:51.571Z,17.30
2019-04-25T20:09:33.527Z,17.30
2019-04-25T20:12:04.112Z,17.23
2019-04-25T20:14:34.104Z,17.10
2019-04-25T20:17:03.630Z,16.94
2019-04-25T20:19:33.158Z,16.80
2019-04-25T20:22:02.726Z,16.72
2019-04-25T20:24:32.346Z,16.63
2019-04-25T20:27:01.969Z,16.55
2019-04-25T20:29:31.493Z,16.51
2019-04-25T20:32:01.044Z,16.38
2019-04-25T20:34:30.561Z,16.32
2019-04-25T20:37:00.107Z,16.34
2019-04-25T20:39:29.975Z,16.43
2019-04-25T20:42:03.893Z,16.44
2019-04-25T20:44:30.952Z,16.25
2019-04-25T20:47:00.464Z,16.21
2019-04-25T20:49:30.021Z,16.11
2019-04-25T20:51:59.692Z,16.15
2019-04-25T20:54:29.548Z,16.05
2019-04-25T20:56:59.410Z,16.13
2019-04-25T20:59:29.027Z,16.24
2019-04-25T21:01:58.560Z,16.13
2019-04-25T21:04:41.552Z,16.03
2019-04-25T21:07:11.785Z,16.04
2019-04-25T21:09:41.318Z,16.07
2019-04-25T21:12:10.913Z,16.15
2019-04-25T21:15:00.272Z,16.09
2019-04-25T21:17:34.145Z,16.06
2019-04-25T21:20:06.302Z,16.05
2019-04-25T21:22:36.139Z,15.86
2019-04-25T21:25:07.205Z,15.82
2019-04-25T21:27:36.840Z,15.84
2019-04-25T21:30:08.161Z,15.71
2019-04-25T21:32:53.750Z,15.51
2019-04-25T21:35:24.157Z,15.47
2019-04-25T21:37:53.930Z,15.23
2019-04-25T21:40:28.951Z,15.21
2019-04-25T21:43:00.441Z,15.30
2019-04-25T21:45:30.660Z,15.34
2019-04-25T21:48:00.791Z,15.19
2019-04-25T21:50:30.647Z,15.18
2019-04-25T21:53:01.288Z,15.17
2019-04-25T21:55:31.272Z,15.23
2019-04-25T21:58:02.066Z,15.08
2019-04-25T22:00:48.925Z,15.02
2019-04-25T22:03:21.145Z,15.04
2019-04-25T22:05:50.984Z,15.08
2019-04-25T22:08:20.521Z,15.17
2019-04-25T22:10:50.064Z,15.21
2019-04-25T22:13:19.657Z,15.21
2019-04-25T22:15:49.810Z,15.17
2019-04-25T22:18:19.691Z,15.14
2019-04-25T22:20:49.259Z,15.09
2019-04-25T22:23:19.226Z,15.08
2019-04-25T22:25:49.216Z,15.01
2019-04-25T22:28:19.132Z,15.04
2019-04-25T22:30:50.713Z,15.07
2019-04-25T22:33:24.707Z,15.00
2019-04-25T22:35:55.881Z,14.99
2019-04-25T22:38:25.780Z,14.93
2019-04-25T22:40:55.318Z,14.82
2019-04-25T22:43:26.079Z,14.80
2019-04-25T22:45:55.829Z,14.84
2019-04-25T22:48:27.361Z,14.86
2019-04-25T22:50:57.085Z,14.71
2019-04-25T22:53:26.801Z,14.66
2019-04-25T22:55:56.785Z,14.65
2019-04-25T22:58:26.358Z,14.67
2019-04-25T23:00:56.089Z,14.73
2019-04-25T23:03:36.229Z,14.74
2019-04-25T23:06:05.877Z,14.72
2019-04-25T23:08:35.396Z,14.56
2019-04-25T23:11:05.097Z,14.49
2019-04-25T23:13:34.991Z,14.47
2019-04-25T23:16:05.112Z,14.41
2019-04-25T23:18:34.932Z,14.41
2019-04-25T23:21:05.547Z,14.44
2019-04-25T23:23:35.834Z,14.48
2019-04-25T23:26:16.072Z,14.57
2019-04-25T23:28:46.909Z,14.62
2019-04-25T23:31:18.085Z,14.67
2019-04-25T23:33:47.621Z,14.75
2019-04-25T23:36:17.241Z,14.80
2019-04-25T23:38:47.194Z,14.75
2019-04-25T23:41:16.974Z,14.79
2019-04-25T23:43:46.531Z,14.77
2019-04-25T23:46:16.338Z,14.78
2019-04-25T23:48:45.986Z,14.81
2019-04-25T23:51:15.542Z,14.79
2019-04-25T23:53:45.257Z,14.75
2019-04-25T23:56:15.267Z,14.73
2019-04-25T23:58:45.275Z,14.75
